Time;durP1;ratioP1;P1;durP2;ratioP2;P2;SDS_P1;SDS_P2;PMS_P1;PMS_P2;Temp;Humidity;BMP_temperature;BMP_pressure;BME280_temperature;BME280_humidity;BME280_pressure;Samples;Min_cycle;Max_cycle;Signal;HPM_P1;HPM_P2
2022/06/22 00:00:14;;;;;;;1.60;1.50;;;17.20;1.40;;;18.31;100.00;95049.27;620289;226;31924;-73
2022/06/22 00:02:56;;;;;;;2.12;1.92;;;17.20;1.40;;;18.33;100.00;95046.54;646135;216;31824;-75
2022/06/22 00:05:38;;;;;;;2.53;2.33;;;17.20;1.40;;;18.32;100.00;95045.97;646926;216;31816;-73
2022/06/22 00:08:20;;;;;;;2.05;1.62;;;17.20;1.40;;;18.37;100.00;95034.58;645817;216;31853;-73
2022/06/22 00:11:04;;;;;;;2.60;2.30;;;17.20;1.40;;;18.26;100.00;95031.92;647242;216;31616;-73
2022/06/22 00:13:48;;;;;;;3.00;1.73;;;17.10;1.40;;;18.23;100.00;95039.02;647133;212;31583;-73
2022/06/22 00:16:31;;;;;;;1.90;1.80;;;17.00;1.40;;;18.19;100.00;95022.50;647512;216;31560;-73
2022/06/22 00:19:13;;;;;;;4.15;1.60;;;17.00;1.40;;;18.07;100.00;95012.14;615678;225;31892;-73
2022/06/22 00:21:55;;;;;;;2.10;1.90;;;16.90;1.40;;;17.97;100.00;94999.93;646995;212;42906;-73
2022/06/22 00:24:37;;;;;;;3.17;1.98;;;16.90;1.40;;;17.94;100.00;94984.34;646983;216;31572;-73
2022/06/22 00:27:37;;;;;;;2.30;1.62;;;17.00;1.40;;;17.93;100.00;94967.98;647163;216;31504;-73
2022/06/22 00:30:20;;;;;;;3.22;2.92;;;17.10;1.40;;;17.98;100.00;94958.86;646407;212;31533;-72
2022/06/22 00:35:53;;;;;;;2.55;1.87;;;17.10;1.40;;;17.97;100.00;94956.97;647350;216;32181;-73
2022/06/22 00:38:35;;;;;;;4.60;2.00;;;17.10;1.40;;;17.98;100.00;94948.32;645647;216;31686;-73
2022/06/22 00:41:18;;;;;;;1.87;1.52;;;17.00;1.40;;;18.05;100.00;94952.39;647579;216;31543;-72
2022/06/22 00:44:00;;;;;;;2.20;1.50;;;17.10;1.40;;;18.12;100.00;94957.33;646835;216;42774;-72
2022/06/22 00:46:41;;;;;;;2.20;2.00;;;17.10;1.40;;;18.03;100.00;94956.45;646320;216;31643;-72
2022/06/22 00:49:23;;;;;;;2.03;1.90;;;17.00;1.40;;;17.98;100.00;94957.79;645733;216;31863;-72
2022/06/22 00:52:05;;;;;;;1.62;1.52;;;16.90;1.40;;;17.92;100.00;94948.19;645178;216;31756;-72
2022/06/22 00:54:47;;;;;;;1.90;1.67;;;17.00;1.40;;;17.84;100.00;94947.17;646669;216;31927;-72
2022/06/22 00:57:28;;;;;;;1.17;1.08;;;16.90;1.40;;;17.75;100.00;94942.07;647796;216;31524;-72
2022/06/22 01:00:15;;;;;;;1.70;1.60;;;16.90;1.40;;;17.70;100.00;94942.34;646833;216;31570;-73
2022/06/22 01:03:00;;;;;;;2.10;1.62;;;16.80;1.40;;;17.72;100.00;94945.45;646731;216;31523;-73
2022/06/22 01:05:52;;;;;;;2.10;1.77;;;16.80;1.40;;;17.66;100.00;94938.67;645742;216;31634;-73
2022/06/22 01:08:42;;;;;;;2.90;2.03;;;16.80;1.40;;;17.66;100.00;94933.91;619202;226;31833;-74
2022/06/22 01:14:15;;;;;;;1.42;1.33;;;16.70;1.40;;;17.64;100.00;94924.62;646924;212;31542;-73
2022/06/22 01:16:57;;;;;;;2.30;1.83;;;16.70;1.40;;;17.63;100.00;94919.81;647245;216;31521;-74
2022/06/22 01:19:42;;;;;;;2.40;1.50;;;16.70;1.40;;;17.60;100.00;94917.48;647531;212;31596;-73
2022/06/22 01:22:43;;;;;;;2.20;1.52;;;16.60;1.40;;;17.56;100.00;94914.38;646236;216;31853;-74
2022/06/22 01:25:55;;;;;;;2.12;1.92;;;16.50;1.40;;;17.54;100.00;94912.52;646655;216;31585;-73
2022/06/22 01:28:37;;;;;;;2.20;2.00;;;16.60;1.40;;;17.53;100.00;94907.02;646684;216;34915;-74
2022/06/22 01:31:18;;;;;;;1.23;1.10;;;16.60;1.40;;;17.45;100.00;94903.94;645947;216;31639;-73
2022/06/22 01:35:53;;;;;;;2.22;2.03;;;16.50;1.40;;;17.43;100.00;94889.68;646836;216;31708;-73
2022/06/22 01:38:35;;;;;;;1.77;1.67;;;16.50;1.40;;;17.49;100.00;94892.77;648405;216;31771;-73
2022/06/22 01:41:24;;;;;;;1.90;1.73;;;16.50;1.40;;;17.51;100.00;94900.03;646696;216;31590;-73
2022/06/22 01:47:07;;;;;;;1.77;1.37;;;16.50;1.40;;;17.55;100.00;94894.67;630268;222;32313;-73
2022/06/22 01:50:08;;;;;;;5.20;1.20;;;16.60;1.40;;;17.56;100.00;94878.02;646568;216;31562;-72
2022/06/22 01:52:52;;;;;;;2.80;1.90;;;16.50;1.40;;;17.53;100.00;94871.78;640061;212;31728;-72
2022/06/22 01:55:52;;;;;;;4.15;1.90;;;16.50;1.40;;;17.56;100.00;94873.29;647187;216;31611;-72
2022/06/22 01:58:40;;;;;;;2.40;2.00;;;16.50;1.40;;;17.54;100.00;94871.23;646598;216;31565;-73
2022/06/22 02:01:35;;;;;;;2.08;1.87;;;16.50;1.40;;;17.47;100.00;94872.44;646566;216;32180;-73
2022/06/22 02:04:27;;;;;;;1.58;1.37;;;16.50;1.40;;;17.45;100.00;94866.53;646976;216;32139;-72
2022/06/22 02:13:18;;;;;;;1.63;1.53;;;16.40;1.40;;;17.33;100.00;94876.98;618831;225;31940;-72
2022/06/22 02:16:11;;;;;;;4.45;1.75;;;16.30;1.40;;;17.26;100.00;94879.31;645413;216;31507;-73
2022/06/22 02:19:12;;;;;;;1.92;1.58;;;16.30;1.40;;;17.24;100.00;94873.36;646739;212;32181;-73
2022/06/22 02:21:57;;;;;;;2.20;1.62;;;16.30;1.40;;;17.25;100.00;94878.73;647020;216;32396;-73
2022/06/22 02:24:40;;;;;;;2.10;1.70;;;16.30;1.40;;;17.29;100.00;94881.27;645341;216;31582;-73
2022/06/22 02:27:23;;;;;;;1.60;1.50;;;16.30;1.40;;;17.27;100.00;94880.70;647017;216;32043;-73
2022/06/22 02:30:03;;;;;;;1.80;1.50;;;16.30;1.40;;;17.30;100.00;94868.44;646555;216;32087;-72
2022/06/22 02:32:45;;;;;;;2.00;1.67;;;16.30;1.40;;;17.35;100.00;94867.67;647218;216;31549;-71
2022/06/22 02:35:51;;;;;;;1.10;1.00;;;16.30;1.40;;;17.38;100.00;94860.52;646193;216;31631;-72
2022/06/22 02:38:32;;;;;;;2.03;1.92;;;16.30;1.40;;;17.37;100.00;94857.23;646407;216;31704;-72
2022/06/22 02:46:52;;;;;;;1.92;1.30;;;16.20;1.40;;;17.32;100.00;94857.04;647754;216;32066;-72
2022/06/22 02:49:33;;;;;;;3.78;1.50;;;16.10;1.40;;;17.22;100.00;94860.42;647122;216;31567;-72
2022/06/22 02:52:15;;;;;;;2.33;1.70;;;16.00;1.40;;;17.19;100.00;94855.22;643532;216;32802;-73
2022/06/22 02:55:00;;;;;;;1.08;0.98;;;16.00;1.40;;;17.09;100.00;94851.36;645041;216;31550;-72
2022/06/22 02:57:48;;;;;;;1.77;1.08;;;16.00;1.40;;;17.08;100.00;94850.53;647375;212;31605;-72
2022/06/22 03:00:33;;;;;;;5.78;1.87;;;16.00;1.40;;;17.06;100.00;94847.63;618960;226;33164;-72
2022/06/22 03:03:14;;;;;;;1.67;1.10;;;16.00;1.40;;;17.07;100.00;94850.45;647285;216;31548;-72
2022/06/22 03:05:56;;;;;;;1.40;1.30;;;16.10;1.40;;;17.09;100.00;94849.88;647563;216;31527;-73
2022/06/22 03:08:41;;;;;;;2.17;1.48;;;16.00;1.40;;;17.20;100.00;94847.61;647192;212;31568;-73
2022/06/22 03:11:23;;;;;;;1.67;0.93;;;16.10;1.40;;;17.25;100.00;94838.50;645879;216;31502;-73
2022/06/22 03:14:14;;;;;;;3.70;1.90;;;16.10;1.40;;;17.31;100.00;94843.94;646300;212;31555;-73
2022/06/22 03:17:05;;;;;;;1.40;1.10;;;16.10;1.40;;;17.33;100.00;94839.28;646812;216;31507;-72
2022/06/22 03:19:46;;;;;;;3.20;1.50;;;16.10;1.40;;;17.32;100.00;94852.03;648384;216;31535;-72
2022/06/22 03:22:32;;;;;;;1.50;1.00;;;16.10;1.40;;;17.34;100.00;94853.99;647246;212;31520;-72
2022/06/22 03:25:17;;;;;;;2.25;1.92;;;16.10;1.40;;;17.39;100.00;94852.12;646474;216;31523;-72
2022/06/22 03:28:02;;;;;;;4.68;1.60;;;16.20;1.40;;;17.42;100.00;94854.28;646046;216;31509;-72
2022/06/22 03:30:49;;;;;;;2.90;1.27;;;16.20;1.40;;;17.45;100.00;94855.67;646186;212;31566;-72
2022/06/22 03:35:53;;;;;;;1.02;0.90;;;16.30;1.40;;;17.56;100.00;94865.39;646983;212;31769;-71
2022/06/22 03:38:35;;;;;;;2.90;1.25;;;16.40;1.40;;;17.61;100.00;94868.45;647212;216;31558;-72
2022/06/22 03:41:17;;;;;;;2.10;1.00;;;16.40;1.40;;;17.67;100.00;94872.89;646933;216;32112;-73
2022/06/22 03:43:59;;;;;;;1.30;0.95;;;16.50;1.40;;;17.70;100.00;94872.98;645651;212;31935;-73
2022/06/22 03:46:43;;;;;;;2.40;1.10;;;16.50;1.40;;;17.69;100.00;94874.77;618823;225;31871;-72
2022/06/22 03:49:29;;;;;;;1.33;0.97;;;16.50;1.40;;;17.77;100.00;94869.91;619504;226;32082;-72
2022/06/22 03:52:19;;;;;;;1.33;1.00;;;16.60;1.40;;;17.92;100.00;94868.20;644514;216;31721;-72
2022/06/22 03:57:36;;;;;;;1.20;0.80;;;16.80;1.40;;;18.05;100.00;94856.50;647123;212;31582;-73
2022/06/22 04:00:18;;;;;;;2.00;1.20;;;16.70;1.40;;;18.00;100.00;94856.87;645857;216;31519;-73
2022/06/22 04:03:00;;;;;;;1.13;1.03;;;16.70;1.40;;;18.08;100.00;94855.83;619042;222;32395;-73
2022/06/22 04:05:43;;;;;;;1.02;0.93;;;16.80;1.40;;;18.13;100.00;94857.84;647415;216;31989;-74
2022/06/22 04:08:28;;;;;;;1.70;1.33;;;16.80;1.40;;;18.26;100.00;94861.73;646948;216;31558;-75
2022/06/22 04:11:12;;;;;;;1.80;1.70;;;16.90;1.40;;;18.40;100.00;94856.52;646381;216;31566;-73
2022/06/22 04:14:22;;;;;;;4.20;1.37;;;17.10;1.40;;;18.57;100.00;94864.14;618121;226;32005;-73
2022/06/22 04:17:04;;;;;;;5.10;1.40;;;17.30;1.40;;;18.79;100.00;94860.91;646853;216;31516;-73
2022/06/22 04:19:46;;;;;;;1.62;1.35;;;17.40;1.40;;;19.08;100.00;94859.23;647078;216;31517;-73
2022/06/22 04:22:28;;;;;;;1.67;1.20;;;17.60;1.40;;;19.20;100.00;94865.64;647293;216;31621;-72
2022/06/22 04:25:16;;;;;;;2.10;1.45;;;17.70;1.40;;;19.44;100.00;94871.20;646808;216;31609;-73
2022/06/22 04:28:02;;;;;;;4.65;1.75;;;17.90;1.40;;;19.58;100.00;94869.70;647066;216;31637;-73
2022/06/22 04:30:42;;;;;;;1.30;1.20;;;17.90;1.40;;;19.77;100.00;94867.56;645034;216;31576;-74
2022/06/22 04:36:11;;;;;;;1.80;1.12;;;18.00;1.40;;;19.64;100.00;94869.78;647247;212;31561;-73
2022/06/22 04:38:57;;;;;;;2.50;1.55;;;18.00;1.40;;;19.95;100.00;94871.23;646410;215;31589;-73
2022/06/22 04:41:38;;;;;;;2.87;1.45;;;18.00;1.40;;;20.24;100.00;94878.61;646561;216;31660;-73
2022/06/22 04:44:22;;;;;;;2.10;1.70;;;18.30;1.40;;;20.29;100.00;94886.08;646841;212;31531;-73
2022/06/22 04:47:08;;;;;;;2.10;1.80;;;18.40;1.40;;;20.33;100.00;94891.89;647504;216;31591;-73
2022/06/22 04:49:50;;;;;;;4.32;1.60;;;18.30;1.40;;;20.29;100.00;94893.64;647119;212;32098;-72
2022/06/22 04:52:48;;;;;;;2.28;1.80;;;18.30;1.40;;;20.19;100.00;94904.08;641617;216;42306;-73
2022/06/22 04:55:29;;;;;;;1.52;1.40;;;18.30;1.40;;;20.19;100.00;94916.88;619954;226;31844;-72
2022/06/22 04:58:10;;;;;;;2.30;1.80;;;18.30;1.40;;;20.28;100.00;94918.47;646908;212;32238;-73
2022/06/22 05:00:52;;;;;;;1.77;1.20;;;18.40;1.40;;;20.21;100.00;94923.83;644529;216;31532;-72
2022/06/22 05:03:33;;;;;;;1.65;1.50;;;18.40;1.40;;;20.43;100.00;94925.02;646720;216;31826;-72
2022/06/22 05:06:18;;;;;;;2.60;1.50;;;18.40;1.40;;;20.21;100.00;94924.98;646626;216;31567;-72
2022/06/22 05:09:01;;;;;;;2.15;1.75;;;18.40;1.40;;;20.00;100.00;94914.59;645478;216;31672;-72
2022/06/22 05:11:43;;;;;;;1.50;1.40;;;18.30;1.40;;;20.06;100.00;94906.88;646868;216;42232;-73
2022/06/22 05:14:26;;;;;;;2.75;1.92;;;18.30;1.40;;;20.42;100.00;94905.45;646300;216;42693;-72
2022/06/22 05:17:09;;;;;;;1.60;1.20;;;18.50;1.40;;;20.22;100.00;94904.48;646558;216;31872;-72
2022/06/22 05:19:52;;;;;;;2.28;1.77;;;18.50;1.40;;;20.30;100.00;94899.90;646294;212;31723;-73
2022/06/22 05:22:34;;;;;;;2.03;1.50;;;18.40;1.40;;;20.17;100.00;94894.81;646816;212;31533;-72
2022/06/22 05:25:17;;;;;;;2.05;1.40;;;18.40;1.40;;;20.05;100.00;94890.95;647050;216;32144;-72
2022/06/22 05:28:06;;;;;;;5.55;1.65;;;18.40;1.40;;;19.98;100.00;94890.67;646329;212;31524;-72
2022/06/22 05:30:48;;;;;;;1.62;1.23;;;18.50;1.40;;;20.10;100.00;94888.22;644925;212;31661;-72
2022/06/22 05:35:52;;;;;;;2.70;1.47;;;18.70;1.40;;;20.25;100.00;94871.20;646760;216;32113;-72
2022/06/22 05:38:34;;;;;;;2.87;1.30;;;18.80;1.40;;;20.14;100.00;94862.52;646771;216;31545;-72
2022/06/22 05:41:16;;;;;;;1.73;1.33;;;18.70;1.40;;;20.16;100.00;94858.49;619174;225;43135;-72
2022/06/22 05:43:58;;;;;;;1.70;1.58;;;18.70;1.40;;;20.20;100.00;94858.19;646612;212;31492;-72
2022/06/22 05:46:43;;;;;;;2.37;1.37;;;18.80;1.40;;;20.32;100.00;94857.61;645702;216;31573;-73
2022/06/22 05:49:28;;;;;;;2.50;1.10;;;18.90;1.40;;;20.39;100.00;94860.31;646991;216;31556;-73
2022/06/22 05:52:15;;;;;;;1.80;1.10;;;19.00;1.40;;;20.30;100.00;94863.72;646704;216;31537;-72
2022/06/22 05:54:59;;;;;;;1.30;1.17;;;19.10;1.40;;;20.40;100.00;94871.86;647102;212;31833;-73
2022/06/22 05:58:01;;;;;;;1.90;1.50;;;19.20;1.40;;;20.41;100.00;94872.33;619936;226;32056;-72
2022/06/22 06:00:44;;;;;;;1.70;1.00;;;19.30;1.40;;;20.62;100.00;94871.44;645976;216;31600;-72
2022/06/22 06:03:36;;;;;;;2.60;1.20;;;19.50;1.40;;;20.85;100.00;94881.98;645693;213;32183;-75
2022/06/22 06:06:24;;;;;;;2.83;1.20;;;19.70;1.40;;;20.81;100.00;94886.94;645717;216;31512;-73
2022/06/22 06:09:06;;;;;;;3.00;1.15;;;19.80;1.40;;;21.06;100.00;94892.59;646404;216;31514;-73
2022/06/22 06:11:49;;;;;;;2.90;1.20;;;20.10;1.40;;;21.55;100.00;94904.75;646797;216;31504;-73
2022/06/22 06:14:31;;;;;;;1.60;1.20;;;20.70;1.40;;;21.95;100.00;94911.31;647971;216;32275;-72
2022/06/22 06:17:13;;;;;;;1.58;1.20;;;20.90;1.40;;;22.20;100.00;94918.80;645274;216;31655;-73
2022/06/22 06:19:55;;;;;;;2.83;1.50;;;21.00;1.40;;;22.38;100.00;94936.42;618999;222;32077;-72
2022/06/22 06:22:37;;;;;;;4.75;1.48;;;21.00;1.40;;;22.23;100.00;94925.55;646445;216;31585;-73
2022/06/22 06:28:11;;;;;;;8.07;2.80;;;20.70;1.40;;;22.07;100.00;94945.67;646723;216;32560;-75
2022/06/22 06:30:59;;;;;;;1.65;1.35;;;20.50;1.40;;;21.97;100.00;94946.35;646198;212;31594;-72
2022/06/22 06:35:52;;;;;;;1.80;1.30;;;20.40;1.40;;;21.97;100.00;94944.23;645192;212;31722;-73
2022/06/22 06:38:38;;;;;;;2.58;1.20;;;20.40;1.40;;;21.75;100.00;94936.30;646629;216;31742;-74
2022/06/22 06:41:38;;;;;;;4.00;1.50;;;20.20;1.40;;;21.87;100.00;94932.36;645138;216;31613;-73
2022/06/22 06:44:19;;;;;;;2.00;1.40;;;20.20;1.40;;;21.71;100.00;94936.38;647283;216;31642;-73
2022/06/22 06:47:07;;;;;;;3.65;1.37;;;20.10;1.40;;;21.82;100.00;94936.67;646090;212;31615;-75
2022/06/22 06:50:03;;;;;;;1.65;1.20;;;20.10;1.40;;;21.48;100.00;94935.27;646134;214;42190;-72
2022/06/22 06:53:13;;;;;;;3.90;1.80;;;20.00;1.40;;;21.45;100.00;94935.70;645892;216;31567;-70
2022/06/22 06:56:08;;;;;;;6.72;1.33;;;20.00;1.40;;;21.68;100.00;94936.39;646887;216;31606;-73
2022/06/22 06:58:50;;;;;;;1.30;1.20;;;20.10;1.40;;;21.76;100.00;94936.47;647044;216;31662;-72
2022/06/22 07:01:41;;;;;;;1.67;1.20;;;20.10;1.40;;;21.96;100.00;94931.30;647036;212;31648;-74
2022/06/22 07:04:29;;;;;;;4.80;1.58;;;20.40;1.40;;;22.29;100.00;94934.54;645178;212;31538;-72
2022/06/22 07:07:30;;;;;;;3.10;1.20;;;20.70;1.40;;;22.17;100.00;94940.37;646178;216;31541;-72
2022/06/22 07:10:18;;;;;;;4.07;2.30;;;20.70;1.40;;;22.17;100.00;94944.89;647178;216;31571;-74
2022/06/22 07:13:01;;;;;;;2.50;1.55;;;20.40;1.40;;;22.30;100.00;94951.00;647471;212;31669;-72
2022/06/22 07:15:42;;;;;;;1.92;1.62;;;20.60;1.40;;;22.26;100.00;94950.68;647885;216;31613;-72
2022/06/22 07:18:28;;;;;;;1.53;1.20;;;20.60;1.40;;;22.22;100.00;94953.49;646763;216;36904;-72
2022/06/22 07:21:18;;;;;;;2.72;1.20;;;20.60;1.40;;;22.45;100.00;94960.36;617967;225;32176;-73
2022/06/22 07:24:07;;;;;;;2.80;1.70;;;20.70;1.40;;;22.35;100.00;94959.45;647906;216;32020;-72
2022/06/22 07:27:01;;;;;;;1.40;1.30;;;20.70;1.40;;;22.46;100.00;94973.64;648091;216;31595;-72
2022/06/22 07:29:47;;;;;;;3.40;1.80;;;20.80;1.40;;;22.34;100.00;94967.67;647069;216;31644;-73
2022/06/22 07:36:03;;;;;;;1.87;1.63;;;20.70;1.40;;;22.06;100.00;94959.84;645171;216;32474;-73
2022/06/22 07:38:48;;;;;;;3.12;1.62;;;20.50;1.40;;;22.03;100.00;94964.98;648064;216;31525;-73
2022/06/22 07:41:32;;;;;;;2.50;1.55;;;20.50;1.40;;;22.19;100.00;94962.30;619333;226;32018;-74
2022/06/22 07:44:17;;;;;;;2.80;1.35;;;20.60;1.40;;;22.29;100.00;94965.70;648028;216;31673;-72
2022/06/22 07:47:17;;;;;;;2.83;1.65;;;20.70;1.40;;;22.53;100.00;94976.25;646718;216;31701;-73
2022/06/22 07:50:01;;;;;;;4.62;1.45;;;21.00;1.40;;;22.39;100.00;94973.50;645271;216;31661;-72
2022/06/22 07:52:46;;;;;;;4.80;2.47;;;21.00;1.40;;;22.58;100.00;94974.64;641067;216;31684;-74
2022/06/22 07:55:50;;;;;;;1.90;1.50;;;21.10;1.40;;;22.42;100.00;94983.70;647571;216;32054;-72
2022/06/22 07:58:36;;;;;;;4.30;2.10;;;21.10;1.40;;;22.27;100.00;94974.19;646691;216;31770;-72
2022/06/22 08:01:17;;;;;;;2.20;1.27;;;21.00;1.40;;;22.73;100.00;94973.66;646706;216;31611;-72
2022/06/22 08:04:21;;;;;;;6.68;2.58;;;21.30;1.40;;;23.06;100.00;94963.05;645693;216;31552;-72
2022/06/22 08:07:09;;;;;;;2.17;1.40;;;21.60;1.40;;;23.48;100.00;94969.33;645095;212;32384;-72
2022/06/22 08:10:11;;;;;;;2.20;1.20;;;21.80;1.40;;;23.32;100.00;94974.86;647878;216;31703;-72
2022/06/22 08:13:00;;;;;;;3.10;1.80;;;21.80;1.40;;;23.59;100.00;94972.34;647074;216;31610;-73
2022/06/22 08:15:51;;;;;;;3.30;1.33;;;22.10;1.40;;;23.66;100.00;94970.45;647212;216;31548;-72
2022/06/22 08:18:32;;;;;;;1.52;1.42;;;22.10;1.40;;;23.96;100.00;94972.36;647291;216;32032;-72
2022/06/22 08:21:14;;;;;;;2.83;1.80;;;22.00;1.40;;;23.52;100.00;94977.95;646891;216;31591;-72
2022/06/22 08:23:55;;;;;;;3.70;1.90;;;21.80;1.40;;;23.41;100.00;94986.34;645670;216;31530;-73
2022/06/22 08:26:43;;;;;;;5.32;1.95;;;21.80;1.40;;;23.39;100.00;94986.84;647610;216;31625;-74
2022/06/22 08:29:25;;;;;;;2.78;1.42;;;21.70;1.40;;;23.08;100.00;94988.66;646817;212;31526;-74
2022/06/22 08:32:15;;;;;;;3.28;1.80;;;21.40;1.40;;;23.14;100.00;94990.90;645692;216;31570;-73
2022/06/22 08:35:54;;;;;;;3.30;1.70;;;21.50;1.40;;;22.92;100.00;95007.14;645781;216;31581;-74
2022/06/22 08:38:43;;;;;;;7.80;1.80;;;21.30;1.40;;;22.59;100.00;95017.27;645964;216;34559;-73
2022/06/22 08:41:33;;;;;;;3.53;2.78;;;21.10;1.40;;;22.33;100.00;95020.44;646847;216;31846;-73
2022/06/22 08:44:28;;;;;;;3.97;1.80;;;21.00;1.40;;;22.23;100.00;95015.62;646751;216;31537;-73
2022/06/22 08:47:28;;;;;;;3.67;1.73;;;21.00;1.40;;;22.25;100.00;95012.95;619051;226;31867;-73
2022/06/22 08:50:39;;;;;;;2.40;1.90;;;21.00;1.40;;;22.52;100.00;95012.00;647041;216;31729;-72
2022/06/22 08:53:41;;;;;;;3.00;1.90;;;21.20;1.40;;;22.65;100.00;95014.13;636762;216;32426;-73
2022/06/22 08:56:59;;;;;;;1.67;1.50;;;21.30;1.40;;;23.12;100.00;95011.59;647100;212;31529;-72
2022/06/22 09:02:43;;;;;;;6.65;2.03;;;21.60;1.40;;;23.55;100.00;95017.73;646360;212;42371;-74
2022/06/22 09:05:45;;;;;;;2.20;1.50;;;22.00;1.40;;;23.50;100.00;95019.31;647071;216;31742;-73
2022/06/22 09:08:37;;;;;;;4.47;1.90;;;21.90;1.40;;;23.55;100.00;95016.97;646076;216;31668;-73
2022/06/22 09:11:29;;;;;;;4.85;2.42;;;22.00;1.40;;;23.53;100.00;95006.28;647298;216;31674;-72
2022/06/22 09:14:18;;;;;;;3.03;1.90;;;22.10;1.40;;;23.74;100.00;95007.44;646913;216;31698;-73
2022/06/22 09:17:10;;;;;;;2.72;1.70;;;22.20;1.40;;;23.82;100.00;95006.02;646916;216;42170;-72
2022/06/22 09:20:21;;;;;;;2.30;1.80;;;22.20;1.40;;;23.70;100.00;95009.70;647252;216;31692;-73
2022/06/22 09:23:07;;;;;;;4.22;2.28;;;22.30;1.40;;;24.36;100.00;95007.22;645423;216;31659;-74
2022/06/22 09:25:54;;;;;;;2.72;1.80;;;22.50;1.40;;;24.31;100.00;95007.88;647857;216;31659;-75
2022/06/22 09:28:58;;;;;;;5.05;2.03;;;22.60;1.40;;;23.86;100.00;95011.30;646842;212;31625;-73
2022/06/22 09:31:51;;;;;;;4.53;1.80;;;22.00;1.40;;;23.86;100.00;95010.17;647132;216;32095;-73
2022/06/22 09:36:08;;;;;;;3.50;1.90;;;22.20;1.40;;;23.36;100.00;95002.12;646881;216;42089;-73
2022/06/22 09:39:33;;;;;;;3.70;2.17;;;21.80;1.40;;;23.15;100.00;95000.33;629817;221;32129;-73
2022/06/22 09:42:39;;;;;;;3.78;1.90;;;21.60;1.40;;;23.29;100.00;94999.55;647097;212;31520;-73
2022/06/22 09:45:27;;;;;;;3.65;2.22;;;21.70;1.40;;;22.86;100.00;95003.24;648078;216;31735;-73
2022/06/22 09:49:01;;;;;;;7.47;2.40;;;21.50;1.40;;;22.68;100.00;94998.80;645853;216;31611;-72
2022/06/22 09:58:00;;;;;;;4.28;2.40;;;21.60;1.40;;;22.90;100.00;94982.30;646066;212;32209;-72
2022/06/22 10:00:46;;;;;;;3.78;2.03;;;21.70;1.40;;;23.44;100.00;94976.00;648177;216;33552;-72
2022/06/22 10:03:42;;;;;;;4.22;2.50;;;22.20;1.40;;;23.64;100.00;94981.38;646466;216;31529;-73
2022/06/22 10:06:43;;;;;;;6.12;2.67;;;22.00;1.40;;;23.71;100.00;94987.09;647492;216;42156;-73
2022/06/22 10:09:38;;;;;;;3.80;1.70;;;22.10;1.40;;;24.06;100.00;94989.05;647050;216;31791;-73
2022/06/22 10:12:43;;;;;;;4.53;2.12;;;22.30;1.40;;;24.44;100.00;94991.74;646843;216;31765;-73
2022/06/22 10:15:32;;;;;;;2.47;2.20;;;22.80;1.40;;;24.83;100.00;94997.59;647452;212;31622;-73
2022/06/22 10:18:29;;;;;;;4.20;2.35;;;23.10;1.40;;;25.33;100.00;94994.70;647486;216;31542;-74
2022/06/22 10:21:35;;;;;;;5.70;2.53;;;23.10;1.40;;;24.46;100.00;94996.74;646754;216;31594;-74
2022/06/22 10:24:41;;;;;;;4.45;2.60;;;22.60;1.40;;;24.58;100.00;94999.97;619363;222;32067;-74
2022/06/22 10:27:58;;;;;;;5.95;2.70;;;22.40;1.40;;;24.04;100.00;95004.73;646417;216;31662;-73
2022/06/22 10:30:51;;;;;;;5.60;2.10;;;22.10;1.40;;;23.83;100.00;95014.88;647083;216;31579;-73
2022/06/22 10:36:12;;;;;;;4.33;2.30;;;21.90;1.40;;;23.71;100.00;95019.61;647263;216;31796;-72
2022/06/22 10:39:21;;;;;;;5.25;2.42;;;21.90;1.40;;;23.49;100.00;95018.02;619591;222;31913;-73
2022/06/22 10:48:22;;;;;;;5.30;1.90;;;21.50;1.40;;;23.17;100.00;95020.73;647960;216;42324;-73
2022/06/22 10:51:27;;;;;;;7.60;2.10;;;21.30;1.40;;;23.22;100.00;95022.80;646774;216;31591;-73
2022/06/22 10:57:06;;;;;;;3.87;2.40;;;21.20;1.40;;;22.65;100.00;95018.27;646542;216;31604;-73
2022/06/22 11:02:56;;;;;;;5.32;2.25;;;21.10;1.40;;;22.74;100.00;95018.83;647508;212;31559;-73
2022/06/22 11:05:49;;;;;;;2.72;1.80;;;21.30;1.40;;;22.71;100.00;95019.78;646658;216;32067;-72
2022/06/22 11:08:44;;;;;;;6.65;2.87;;;21.40;1.40;;;22.72;100.00;95019.92;647122;216;31674;-74
2022/06/22 11:11:53;;;;;;;3.85;2.10;;;21.40;1.40;;;22.62;100.00;95020.09;646843;216;32039;-73
2022/06/22 11:15:00;;;;;;;5.03;2.75;;;21.20;1.40;;;22.75;100.00;95024.33;645805;216;31663;-73
2022/06/22 11:17:51;;;;;;;3.85;2.25;;;21.20;1.40;;;22.97;100.00;95022.72;647437;212;31521;-73
2022/06/22 11:20:49;;;;;;;3.00;2.60;;;21.30;1.40;;;22.86;100.00;95021.98;646784;216;31633;-74
2022/06/22 11:23:56;;;;;;;4.43;2.47;;;21.40;1.40;;;23.05;100.00;95025.77;645933;216;31610;-73
2022/06/22 11:32:39;;;;;;;3.73;2.10;;;22.00;1.40;;;23.96;100.00;95037.78;647398;212;31691;-74
2022/06/22 11:36:00;;;;;;;2.10;1.90;;;22.40;1.40;;;23.98;100.00;95038.81;646673;216;31580;-73
2022/06/22 11:38:56;;;;;;;3.00;2.15;;;22.40;1.40;;;24.03;100.00;95043.95;619776;225;42529;-73
2022/06/22 11:41:46;;;;;;;2.45;2.00;;;22.30;1.40;;;23.67;100.00;95047.13;647032;216;31749;-73
2022/06/22 11:44:37;;;;;;;5.50;2.30;;;22.20;1.40;;;23.71;100.00;95047.59;645321;216;31536;-73
2022/06/22 11:47:25;;;;;;;7.35;2.50;;;22.20;1.40;;;23.49;100.00;95044.63;645985;216;42144;-74
2022/06/22 11:50:08;;;;;;;1.85;1.70;;;22.10;1.40;;;23.33;100.00;95044.03;620047;226;36900;-73
2022/06/22 11:53:10;;;;;;;4.65;2.00;;;22.00;1.40;;;23.49;100.00;95046.78;647313;216;31601;-73
2022/06/22 11:55:52;;;;;;;4.57;1.67;;;22.40;1.40;;;23.87;100.00;95044.44;646856;216;31591;-72
2022/06/22 12:01:22;;;;;;;3.67;2.10;;;23.20;1.40;;;24.59;100.00;95041.05;646113;216;31740;-73
2022/06/22 12:04:06;;;;;;;5.57;2.67;;;23.30;1.40;;;24.89;100.00;95046.95;646923;212;31660;-73
2022/06/22 12:07:27;;;;;;;6.60;2.47;;;23.50;1.40;;;24.48;100.00;95053.80;647458;212;31672;-77
2022/06/22 12:10:40;;;;;;;6.80;2.62;;;22.70;1.40;;;23.86;100.00;95062.51;647920;216;31570;-73
2022/06/22 12:13:25;;;;;;;5.50;2.97;;;22.50;1.40;;;23.50;100.00;95056.75;647340;216;31554;-73
2022/06/22 12:16:16;;;;;;;4.20;2.78;;;22.20;1.40;;;23.17;100.00;95055.09;645433;216;31569;-73
2022/06/22 12:19:23;;;;;;;5.90;2.03;;;22.10;1.40;;;23.34;100.00;95050.65;619317;226;31884;-74
2022/06/22 12:22:14;;;;;;;3.72;1.50;;;22.40;1.40;;;23.77;100.00;95046.60;646272;216;42161;-73
2022/06/22 12:25:31;;;;;;;5.28;1.80;;;22.70;1.40;;;23.91;100.00;95049.18;646318;216;42160;-74
2022/06/22 12:28:23;;;;;;;4.87;1.70;;;22.40;1.40;;;23.26;100.00;95054.37;646674;212;31506;-73
2022/06/22 12:31:12;;;;;;;3.87;1.50;;;21.90;1.40;;;23.04;100.00;95054.55;645834;212;42162;-74
2022/06/22 12:35:58;;;;;;;1.80;1.00;;;22.00;1.40;;;23.37;100.00;95049.78;646510;216;32184;-73
2022/06/22 12:38:43;;;;;;;2.08;1.25;;;22.10;1.40;;;22.70;100.00;95057.56;619942;226;42553;-74
2022/06/22 12:41:27;;;;;;;2.70;1.50;;;21.50;1.40;;;22.50;100.00;95061.69;646731;216;42133;-73
2022/06/22 12:44:34;;;;;;;6.28;1.37;;;21.30;1.40;;;22.47;100.00;95055.64;646537;216;42180;-73
2022/06/22 12:47:46;;;;;;;2.00;1.20;;;21.30;1.40;;;22.15;100.00;95058.23;647311;216;31513;-73
2022/06/22 12:51:08;;;;;;;6.50;2.20;;;21.10;1.40;;;22.40;100.00;95053.84;647075;212;31627;-73
2022/06/22 12:53:50;;;;;;;5.15;2.00;;;21.30;1.40;;;22.58;100.00;95055.97;635598;216;31969;-73
2022/06/22 12:56:38;;;;;;;6.47;2.15;;;21.40;1.40;;;22.75;100.00;95051.61;646920;216;31595;-73
2022/06/22 12:59:20;;;;;;;4.93;1.87;;;21.60;1.40;;;22.90;100.00;95051.09;647213;216;40671;-73
2022/06/22 13:02:04;;;;;;;8.60;2.43;;;21.60;1.40;;;22.55;100.00;95049.11;645797;216;32145;-73
2022/06/22 13:04:46;;;;;;;7.78;1.50;;;21.50;1.40;;;23.07;100.00;95047.20;646707;216;31631;-73
2022/06/22 13:07:27;;;;;;;3.70;1.60;;;21.70;1.40;;;22.99;100.00;95042.08;648443;216;31596;-73
2022/06/22 13:10:12;;;;;;;6.37;1.15;;;21.50;1.40;;;22.75;100.00;95038.87;647832;216;35576;-73